Capt. George Brumley — WDI3717 — position and weather

sailwx.info

Track history (hours):
 
Tides and Currents Weather Stations Pressure Air Temp Water Temp Dewpoint Dewpoint Depression Visibility Wind Speed Wind Dir Waves Ship Positions

Capt. George Brumley

Owner: Genesis Marine, LLC, Houston, TX. More information available from US FCC via Universal Licensing System and Coast Guard Vessel Documentation Center.

Last reported at 2018-Jan-19 13:31 UTC. Time now 2018-Jan-21 10:38 UTC.
Position N 29°49' W 093°58'.

Length 25 m; draft 3 m.

Type: Other ship. MMSI: 367691190.

Date/timePositionNaut miles runAvg speedWind from/ knotsBaromVisibWave heightAir tempDewpointWater temp
2018-Jan-19 13:31N 29°49' W 093°58'0 0.0
2018-Jan-19 13:30N 29°49' W 093°58'0 0.0
2018-Jan-19 08:59N 29°49' W 093°58'  
2018-Jan-11 23:53N 29°44' W 095°03'0 0.0
2018-Jan-11 23:29N 29°44' W 095°03'2 4.4
2018-Jan-11 22:57N 29°46' W 095°05'2 3.3
2018-Jan-11 22:29N 29°47' W 095°04'0 0.2
2018-Jan-11 20:56N 29°47' W 095°04'0 0.0
2018-Jan-11 20:30N 29°47' W 095°04'0 0.5
2018-Jan-11 19:39N 29°47' W 095°04'0 1.6
2018-Jan-11 19:28N 29°47' W 095°04'2 2.7
2018-Jan-11 18:46N 29°46' W 095°05'0 0.0
2018-Jan-11 12:19N 29°46' W 095°05'2 0.9
2018-Jan-11 10:14N 29°45' W 095°04'2 7.5
2018-Jan-11 10:00N 29°44' W 095°02'3 7.0
2018-Jan-11 09:30N 29°41' W 094°59'4 7.9
2018-Jan-11 09:00N 29°37' W 094°58'4 8.6
2018-Jan-11 08:30N 29°34' W 094°55'4 8.9
2018-Jan-11 08:00N 29°30' W 094°52'9 2.6
2018-Jan-11 04:38N 29°24' W 094°45'71 3.4
2018-Jan-10 07:33N 30°03' W 093°37'1 4.7
2018-Jan-10 07:21N 30°04' W 093°36'1 2.4
2018-Jan-10 06:57N 30°04' W 093°35'2 4.5
2018-Jan-10 06:30N 30°04' W 093°33'2 4.6
2018-Jan-10 06:00N 30°04' W 093°30'2 4.7
2018-Jan-10 05:30N 30°04' W 093°27'2 4.7
2018-Jan-10 05:00N 30°04' W 093°25'2 4.9
2018-Jan-10 04:30N 30°04' W 093°22'2 3.5
2018-Jan-10 04:00N 30°05' W 093°20'2 4.3
2018-Jan-10 03:30N 30°06' W 093°18'2 3.7
2018-Jan-10 03:00N 30°05' W 093°17'2 4.2
2018-Jan-10 02:30N 30°03' W 093°16'2 4.4
2018-Jan-10 02:00N 30°01' W 093°14'2 3.5
2018-Jan-10 01:30N 29°60' W 093°13'0 0.4
2018-Jan-10 01:00N 29°60' W 093°13'1 2.1
2018-Jan-10 00:30N 29°59' W 093°12'2 4.8
2018-Jan-10 00:00N 29°57' W 093°10'2 4.3
2018-Jan-09 23:29N 29°56' W 093°08'42 4.4
2018-Jan-09 13:51N 29°50' W 092°20'  
Track history (hours):
 
Tides and Currents Weather Stations Pressure Air Temp Water Temp Dewpoint Dewpoint Depression Visibility Wind Speed Wind Dir Waves Ship Positions

Capt. George Brumley

Owner: Genesis Marine, LLC, Houston, TX. More information available from US FCC via Universal Licensing System and Coast Guard Vessel Documentation Center.

Last reported at 2018-Jan-19 13:31 UTC. Time now 2018-Jan-21 10:38 UTC.
Position N 29°49' W 093°58'.

Length 25 m; draft 3 m.

Type: Other ship. MMSI: 367691190.

Date/timePositionNaut miles runAvg speedWind from/ knotsBaromVisibWave heightAir tempDewpointWater temp
2018-Jan-19 13:31N 29°49' W 093°58'0 0.0
2018-Jan-19 13:30N 29°49' W 093°58'0 0.0
2018-Jan-19 08:59N 29°49' W 093°58'  
2018-Jan-11 23:53N 29°44' W 095°03'0 0.0
2018-Jan-11 23:29N 29°44' W 095°03'2 4.4
2018-Jan-11 22:57N 29°46' W 095°05'2 3.3
2018-Jan-11 22:29N 29°47' W 095°04'0 0.2
2018-Jan-11 20:56N 29°47' W 095°04'0 0.0
2018-Jan-11 20:30N 29°47' W 095°04'0 0.5
2018-Jan-11 19:39N 29°47' W 095°04'0 1.6
2018-Jan-11 19:28N 29°47' W 095°04'2 2.7
2018-Jan-11 18:46N 29°46' W 095°05'0 0.0
2018-Jan-11 12:19N 29°46' W 095°05'2 0.9
2018-Jan-11 10:14N 29°45' W 095°04'2 7.5
2018-Jan-11 10:00N 29°44' W 095°02'3 7.0
2018-Jan-11 09:30N 29°41' W 094°59'4 7.9
2018-Jan-11 09:00N 29°37' W 094°58'4 8.6
2018-Jan-11 08:30N 29°34' W 094°55'4 8.9
2018-Jan-11 08:00N 29°30' W 094°52'9 2.6
2018-Jan-11 04:38N 29°24' W 094°45'71 3.4
2018-Jan-10 07:33N 30°03' W 093°37'1 4.7
2018-Jan-10 07:21N 30°04' W 093°36'1 2.4
2018-Jan-10 06:57N 30°04' W 093°35'2 4.5
2018-Jan-10 06:30N 30°04' W 093°33'2 4.6
2018-Jan-10 06:00N 30°04' W 093°30'2 4.7
2018-Jan-10 05:30N 30°04' W 093°27'2 4.7
2018-Jan-10 05:00N 30°04' W 093°25'2 4.9
2018-Jan-10 04:30N 30°04' W 093°22'2 3.5
2018-Jan-10 04:00N 30°05' W 093°20'2 4.3
2018-Jan-10 03:30N 30°06' W 093°18'2 3.7
2018-Jan-10 03:00N 30°05' W 093°17'2 4.2
2018-Jan-10 02:30N 30°03' W 093°16'2 4.4
2018-Jan-10 02:00N 30°01' W 093°14'2 3.5
2018-Jan-10 01:30N 29°60' W 093°13'0 0.4
2018-Jan-10 01:00N 29°60' W 093°13'1 2.1
2018-Jan-10 00:30N 29°59' W 093°12'2 4.8
2018-Jan-10 00:00N 29°57' W 093°10'2 4.3
2018-Jan-09 23:29N 29°56' W 093°08'42 4.4
2018-Jan-09 13:51N 29°50' W 092°20'  

Dump ship's entire track history